Schluersburg, Missouri
Current Conditions -  °F | °C
As of 6:55 AM on Saturday 25 Oct 2014 (Local Time) from KFYG Reporting Station
Haze Haze  
Wind Chill: 50°   Ceiling: 100
Heat Index: 50°   Visibility: 4mi
Dew Point: 50°   Wind: 0mph
Humidity: 100%   Direction: NA
Pressure: 30.02"   Gusts: NA
Location:  38.6039°N, 90.8829°W
Report Text: KFYG 251155Z AUTO 00000KT 4SM BR BKN001 BKN029 OVC034 10/10 A3002 RMK AO2
Loading
Personal Weather Stations






























Interactive Weather Map New forecast layout! Learn more

10-Day Weather Forecast

Advertisements
Track Severe Weather on mobile